Norfolk, VA (23508)

3:22 PM EDT on September 19, 2014 (GMT -0400)
Larchmont- Martin | Change Station
CLOSE
Current Station
Personal Weather Station
Location: Norfolk, VA
Elevation: 10 ft
Nearby Weather Stations

Elev 10 ft 36.90 °N, 76.31 °W | Updated 0 second ago

Partly Cloudy
Partly Cloudy
75.6 °F
Feels Like 77 °F
N
0.0
Wind Variable Wind from NNE
Gusts 10.0 mph

Today
High -- | Low -- °F
--% Chance of Precip.
Yesterday
High -- | Low -- °F
Precip. -- in
6:50 AM 7:06 PM
Waning Crescent, 17% visible
Pressure 30.24 in
Visibility 10.0 miles
Clouds Scattered Clouds 4000 ft
Scattered Clouds 9000 ft
Heat Index 77 °F
Dew Point 64 °F
Humidity 67%
Rainfall 0.00 in
Snow Depth Not available.
UV 16.0 out of 12
Pollen 5.80 out of 12
Ozone Good
PM2.5 Good
Flu Activity Not available.
METAR KNGU 191859Z 07011KT 10SM SCT040 SCT090 25/14 A3024 RMK AO2 SLP239 T02500139

More Conditions Fewer Conditions

Pressure 30.24 in
Visibility 10.0 miles
Clouds Scattered Clouds 4000 ft
Scattered Clouds 9000 ft
Heat Index 77 °F
Dew Point 64 °F
Humidity 67%
Rainfall 0.00 in
Snow Depth Not available.
UV 16.0 out of 12
Pollen 5.80 out of 12
Ozone Good
PM2.5 Good
Flu Activity Not available.
METAR KNGU 191859Z 07011KT 10SM SCT040 SCT090 25/14 A3024 RMK AO2 SLP239 T02500139

More Conditions Fewer Conditions

10-Day Weather Forecast

Almanac

Astronomy

Sep. 19, 2014 Rise Set
Actual Time 6:50 AM EDT 7:06 PM EDT
Civil Twilight 6:24 AM EDT 7:32 PM EDT
Nautical Twilight 5:54 AM EDT 8:02 PM EDT
Astronomical Twilight 5:23 AM EDT 8:33 PM EDT
Moon 2:38 AM EDT 4:29 PM EDT
Length of Visible Light 13h 07m
Length of Day
12h 16m
Tomorrow will be 2m 20s shorter.
Waning Crescent, 17% of the Moon is Illuminated
Today
Waning Crescent
Sep 24
New
Oct 1
First Quarter
Oct 8
Full
Oct 15
Last Quarter

Today's Extremes

State Highs State Lows

Community

WunderPhotos

Upload Photos

1,754,686 photos uploaded!

WunderBlogs® & News

Nearby

Air Quality

  Air Quality AQ Index Pollutant
Yesterday Good
OZONE
Yesterday Good
PM2.5
Current Good
OZONE
Current Good
PM2.5
Friday Good
PM2.5
Saturday Good
PM2.5
Sunday Good
PM2.5
Monday Good
PM2.5

Snow Depth

Station Depth Elevation
No new snow has been reported.

Earthquake Activity

City Distance Mag. Time & Date
No recent earthquake activity has been reported nearby.
Minimum magnitude displayed is 2.5.

Coastal Water Temperatures

Place Temperature
No Stations Reporting

Nearby Weather Stations